createdAt,value
2017-12-01T00:01:28.090Z,21.40
2017-12-01T00:03:54.306Z,30.60
2017-12-01T00:06:20.556Z,30.73
2017-12-01T00:08:48.595Z,25.58
2017-12-01T00:11:16.714Z,24.50
2017-12-01T00:13:44.381Z,33.10
2017-12-01T00:16:10.605Z,43.10
2017-12-01T00:18:38.090Z,37.47
2017-12-01T00:21:05.782Z,29.33
2017-12-01T00:23:32.310Z,36.97
2017-12-01T00:26:00.159Z,29.58
2017-12-01T00:28:26.368Z,30.48
2017-12-01T00:30:53.224Z,22.15
2017-12-01T00:33:20.347Z,19.50
2017-12-01T00:35:47.842Z,24.10
2017-12-01T00:38:15.449Z,27.40
2017-12-01T00:40:42.422Z,29.92
2017-12-01T00:43:08.662Z,26.95
2017-12-01T00:45:35.022Z,30.67
2017-12-01T00:48:01.869Z,29.45
2017-12-01T00:50:28.450Z,32.90
2017-12-01T00:52:55.201Z,34.33
2017-12-01T00:55:21.418Z,35.35
2017-12-01T00:57:47.651Z,31.80
2017-12-01T01:00:14.428Z,24.58
2017-12-01T01:02:40.656Z,20.85
2017-12-01T01:05:07.563Z,22.92
2017-12-01T01:20:33.956Z,28.83
2017-12-01T01:23:01.318Z,31.45
2017-12-01T01:25:29.291Z,25.45
2017-12-01T01:27:56.083Z,31.87
2017-12-01T01:30:22.338Z,29.17
2017-12-01T01:32:48.574Z,35.13
2017-12-01T01:45:05.578Z,31.58
2017-12-01T01:47:32.538Z,35.72
2017-12-01T01:49:58.781Z,29.92
2017-12-01T01:52:25.826Z,29.73
2017-12-01T01:54:53.593Z,36.85
2017-12-01T01:57:20.470Z,23.52
2017-12-01T01:59:48.088Z,30.02
2017-12-01T02:02:14.316Z,26.62
2017-12-01T02:04:40.887Z,27.98
2017-12-01T02:07:07.867Z,31.12
2017-12-01T02:09:35.063Z,29.25
2017-12-01T02:12:02.195Z,31.77
2017-12-01T02:14:28.864Z,32.78
2017-12-01T02:16:55.139Z,28.38
2017-12-01T02:19:21.366Z,32.40
2017-12-01T02:21:48.054Z,39.47
2017-12-01T02:24:15.052Z,30.83
2017-12-01T02:26:41.295Z,35.22
2017-12-01T02:29:08.530Z,31.20
2017-12-01T02:31:35.450Z,26.20
2017-12-01T02:34:02.184Z,33.63
2017-12-01T02:36:29.159Z,36.70
2017-12-01T02:38:55.422Z,32.33
2017-12-01T02:41:21.956Z,30.75
2017-12-01T02:43:48.983Z,34.47
2017-12-01T02:46:15.841Z,33.45
2017-12-01T02:48:42.958Z,36.25
2017-12-01T02:51:09.740Z,30.83
2017-12-01T02:53:36.526Z,33.95
2017-12-01T02:56:03.679Z,38.35
2017-12-01T02:58:29.987Z,37.05
2017-12-01T03:00:56.855Z,38.33
2017-12-01T03:03:24.818Z,36.70
2017-12-01T03:05:52.517Z,37.50
2017-12-01T03:08:18.729Z,33.72
2017-12-01T03:10:45.105Z,31.83
2017-12-01T03:13:11.794Z,35.05
2017-12-01T03:15:38.204Z,28.08
2017-12-01T03:18:05.174Z,37.53
2017-12-01T03:20:31.414Z,31.25
2017-12-01T03:22:57.658Z,29.58
2017-12-01T03:25:24.282Z,40.55
2017-12-01T03:27:50.936Z,28.83
2017-12-01T03:30:17.509Z,31.08
2017-12-01T03:32:44.699Z,35.20
2017-12-01T03:35:12.012Z,32.03
2017-12-01T03:37:40.599Z,30.75
2017-12-01T03:40:08.249Z,32.47
2017-12-01T03:42:35.833Z,36.70
2017-12-01T03:45:03.023Z,38.17
2017-12-01T03:47:30.697Z,36.42
2017-12-01T03:49:56.943Z,26.98
2017-12-01T03:52:24.312Z,35.65
2017-12-01T03:54:51.276Z,37.20
2017-12-01T03:57:17.496Z,31.45
2017-12-01T03:59:45.079Z,35.58
2017-12-01T04:02:11.334Z,31.73
2017-12-01T04:04:37.553Z,32.35
2017-12-01T04:07:04.257Z,25.45
2017-12-01T04:09:32.183Z,28.30
2017-12-01T04:11:59.245Z,30.95
2017-12-01T04:14:26.226Z,29.50
2017-12-01T04:29:52.639Z,30.62
2017-12-01T04:32:19.144Z,30.85
2017-12-01T04:34:46.228Z,28.92
2017-12-01T04:37:12.482Z,34.72
2017-12-01T04:39:39.103Z,31.52
2017-12-01T04:42:06.151Z,30.40
2017-12-01T04:44:32.959Z,27.95
2017-12-01T04:47:00.072Z,31.98
2017-12-01T04:49:26.539Z,33.35
2017-12-01T04:51:53.519Z,37.70
2017-12-01T04:54:20.727Z,29.42
2017-12-01T04:56:48.245Z,30.65
2017-12-01T04:59:14.491Z,28.98
2017-12-01T05:01:41.726Z,41.15
2017-12-01T05:04:08.638Z,40.40
2017-12-01T05:06:35.536Z,35.78
2017-12-01T05:09:01.871Z,30.83
2017-12-01T05:11:28.132Z,33.80
2017-12-01T05:13:54.378Z,45.67
2017-12-01T05:16:20.659Z,29.30
2017-12-01T05:18:47.452Z,45.33
2017-12-01T05:21:14.212Z,39.78
2017-12-01T05:23:41.037Z,36.55
2017-12-01T05:26:08.091Z,40.67
2017-12-01T05:28:34.366Z,39.70
2017-12-01T05:31:01.751Z,44.70
2017-12-01T05:33:28.810Z,42.85
2017-12-01T05:35:55.539Z,40.08
2017-12-01T05:38:22.330Z,34.60
2017-12-01T05:40:49.202Z,41.08
2017-12-01T05:43:16.890Z,38.67
2017-12-01T05:45:43.108Z,34.13
2017-12-01T05:48:10.023Z,37.33
2017-12-01T05:50:37.542Z,36.75
2017-12-01T05:53:04.040Z,33.30
2017-12-01T05:55:31.139Z,45.60
2017-12-01T05:57:57.390Z,38.08
2017-12-01T06:00:24.415Z,40.65
2017-12-01T06:02:50.809Z,36.78
2017-12-01T06:05:17.592Z,33.63
2017-12-01T06:07:44.030Z,40.53
2017-12-01T06:10:10.909Z,39.50
2017-12-01T06:12:37.391Z,28.95
2017-12-01T06:15:04.811Z,47.30
2017-12-01T06:17:31.400Z,42.17
2017-12-01T06:19:58.707Z,38.85
2017-12-01T06:22:25.435Z,38.90
2017-12-01T06:24:51.722Z,35.50
2017-12-01T06:27:18.072Z,36.83
2017-12-01T06:29:45.071Z,39.47
2017-12-01T06:32:11.327Z,39.20
2017-12-01T06:34:37.682Z,39.85
2017-12-01T06:37:04.041Z,38.35
2017-12-01T06:39:30.448Z,30.80
2017-12-01T06:41:58.202Z,40.35
2017-12-01T06:44:25.438Z,29.10
2017-12-01T06:46:52.670Z,34.50
2017-12-01T06:49:19.478Z,33.55
2017-12-01T06:51:46.260Z,35.25
2017-12-01T06:54:13.481Z,31.65
2017-12-01T06:56:39.722Z,39.17
2017-12-01T06:59:06.783Z,31.98
2017-12-01T07:01:33.874Z,49.90
2017-12-01T07:04:01.235Z,51.50
2017-12-01T07:06:28.769Z,47.97
2017-12-01T07:08:56.082Z,41.37
2017-12-01T07:11:23.393Z,36.13
2017-12-01T07:13:49.599Z,34.25
2017-12-01T07:16:16.725Z,46.03
2017-12-01T07:18:43.720Z,38.72
2017-12-01T07:21:10.028Z,42.35
2017-12-01T07:23:37.512Z,42.62
2017-12-01T07:26:16.110Z,36.20
2017-12-01T07:28:43.145Z,42.83
2017-12-01T07:31:10.464Z,40.95
2017-12-01T07:33:37.669Z,41.45
2017-12-01T07:36:05.019Z,45.78
2017-12-01T07:38:34.003Z,44.92
2017-12-01T07:41:01.324Z,39.50
2017-12-01T07:43:28.435Z,34.92
2017-12-01T07:45:54.688Z,32.15
2017-12-01T07:48:21.111Z,39.47
2017-12-01T07:50:47.514Z,36.88
2017-12-01T07:53:14.605Z,41.83
2017-12-01T07:55:41.056Z,40.65
2017-12-01T07:58:08.919Z,41.70
2017-12-01T08:00:36.223Z,43.00
2017-12-01T08:03:03.082Z,26.60
2017-12-01T08:05:29.313Z,43.35
2017-12-01T08:07:55.737Z,40.50
2017-12-01T08:10:23.351Z,44.00
2017-12-01T08:12:50.574Z,48.45
2017-12-01T08:15:17.798Z,37.05
2017-12-01T08:17:44.035Z,30.95
2017-12-01T08:20:10.558Z,44.17
2017-12-01T08:22:49.027Z,37.38
2017-12-01T08:25:22.074Z,31.02
2017-12-01T08:27:49.105Z,28.55
2017-12-01T08:30:16.372Z,30.80
2017-12-01T08:32:43.106Z,26.10
2017-12-01T08:35:09.318Z,32.53
2017-12-01T08:37:36.114Z,29.73
2017-12-01T08:40:02.649Z,21.05
2017-12-01T08:42:30.648Z,33.90
2017-12-01T08:44:57.414Z,26.02
2017-12-01T08:47:23.981Z,29.17
2017-12-01T08:49:51.525Z,28.02
2017-12-01T08:52:19.313Z,26.55
2017-12-01T08:54:45.546Z,28.12
2017-12-01T08:57:12.775Z,23.55
2017-12-01T08:59:40.016Z,29.15
2017-12-01T09:02:06.747Z,36.30
2017-12-01T09:04:34.401Z,36.88
2017-12-01T09:07:01.437Z,35.60
2017-12-01T09:09:29.460Z,34.45
2017-12-01T09:11:55.729Z,26.40
2017-12-01T09:14:22.000Z,31.17
2017-12-01T09:16:50.117Z,39.97
2017-12-01T09:19:17.841Z,37.90
2017-12-01T09:21:44.282Z,36.55
2017-12-01T09:24:11.569Z,27.90
2017-12-01T09:26:38.586Z,38.00
2017-12-01T09:29:04.914Z,35.22
2017-12-01T09:31:31.453Z,27.08
2017-12-01T09:33:59.129Z,34.83
2017-12-01T09:36:27.033Z,32.22
2017-12-01T09:38:54.065Z,41.42
2017-12-01T09:41:21.027Z,34.72
2017-12-01T09:43:47.232Z,38.35
2017-12-01T09:46:14.813Z,31.45
2017-12-01T09:48:41.019Z,34.95
2017-12-01T09:51:07.264Z,32.30
2017-12-01T09:53:33.491Z,32.80
2017-12-01T09:55:59.725Z,31.52
2017-12-01T09:58:27.472Z,34.50
2017-12-01T10:00:53.691Z,30.23
2017-12-01T10:03:19.931Z,35.08
2017-12-01T10:05:46.499Z,30.27
2017-12-01T10:08:14.166Z,30.50
2017-12-01T10:10:41.359Z,28.73
2017-12-01T10:13:09.138Z,32.50
2017-12-01T10:15:36.181Z,33.20
2017-12-01T10:18:03.839Z,34.25
2017-12-01T10:20:30.625Z,31.15
2017-12-01T10:22:57.367Z,34.92
2017-12-01T10:25:25.018Z,30.60
2017-12-01T10:27:52.226Z,33.53
2017-12-01T10:30:19.282Z,38.78
2017-12-01T10:32:46.986Z,38.65
2017-12-01T10:35:14.237Z,38.30
2017-12-01T10:37:41.995Z,33.22
2017-12-01T10:40:08.811Z,33.28
2017-12-01T10:42:36.084Z,33.90
2017-12-01T10:45:02.844Z,35.85
2017-12-01T10:47:29.636Z,35.08
2017-12-01T10:49:56.680Z,35.85
2017-12-01T10:52:22.911Z,31.45
2017-12-01T10:54:49.762Z,33.13
2017-12-01T10:57:16.919Z,35.83
2017-12-01T10:59:43.800Z,33.13
2017-12-01T11:02:10.375Z,34.40
2017-12-01T11:04:37.521Z,32.25
2017-12-01T11:07:04.567Z,31.00
2017-12-01T11:09:31.881Z,29.12
2017-12-01T11:11:59.750Z,34.70
2017-12-01T11:14:27.396Z,31.73
2017-12-01T11:16:54.890Z,26.02
2017-12-01T11:19:23.138Z,29.48
2017-12-01T11:21:49.740Z,28.12
2017-12-01T11:24:17.022Z,36.53
2017-12-01T11:26:46.007Z,31.42
2017-12-01T11:29:12.199Z,30.15
2017-12-01T11:31:38.647Z,28.87
2017-12-01T11:34:05.515Z,30.75
2017-12-01T11:36:31.715Z,36.50
2017-12-01T11:38:57.906Z,28.15
2017-12-01T11:41:24.855Z,26.08
2017-12-01T11:43:53.130Z,23.87
2017-12-01T11:46:20.091Z,23.58
2017-12-01T11:48:47.010Z,24.95
2017-12-01T11:51:13.729Z,21.50
2017-12-01T11:53:40.489Z,19.62
2017-12-01T11:56:08.050Z,20.15
2017-12-01T11:58:35.728Z,22.77
2017-12-01T12:01:02.746Z,18.30
2017-12-01T12:03:29.277Z,16.35
2017-12-01T12:05:57.503Z,17.90
2017-12-01T12:08:25.465Z,19.12
2017-12-01T12:10:53.437Z,18.92
2017-12-01T12:13:19.658Z,18.27
2017-12-01T12:15:46.621Z,19.02
2017-12-01T12:18:13.620Z,17.90
2017-12-01T12:20:40.928Z,17.15
2017-12-01T12:23:07.745Z,10.43
2017-12-01T12:25:34.444Z,14.57
2017-12-01T12:28:00.778Z,17.23
2017-12-01T12:30:27.023Z,17.87
2017-12-01T12:32:54.389Z,13.68
2017-12-01T12:35:22.350Z,20.30
2017-12-01T12:37:49.871Z,13.62
2017-12-01T12:40:17.366Z,14.05
2017-12-01T12:42:45.390Z,11.40
2017-12-01T12:45:12.163Z,11.75
2017-12-01T12:47:39.371Z,11.95
2017-12-01T12:50:05.641Z,14.75
2017-12-01T12:52:32.975Z,27.25
2017-12-01T12:54:59.970Z,31.73
2017-12-01T12:57:26.352Z,28.87
2017-12-01T12:59:53.626Z,26.77
2017-12-01T13:02:20.592Z,29.20
2017-12-01T13:04:47.835Z,30.35
2017-12-01T13:07:14.921Z,26.20
2017-12-01T13:09:41.299Z,26.08
2017-12-01T13:12:08.258Z,29.02
2017-12-01T13:14:35.401Z,28.67
2017-12-01T13:17:02.407Z,27.62
2017-12-01T13:19:29.362Z,23.10
2017-12-01T13:21:56.074Z,26.10
2017-12-01T13:24:24.728Z,25.02
2017-12-01T13:26:51.862Z,25.17
2017-12-01T13:29:19.405Z,22.13
2017-12-01T13:31:45.766Z,24.02
2017-12-01T13:34:13.936Z,22.40
2017-12-01T13:36:48.161Z,29.20
2017-12-01T13:39:14.395Z,23.83
2017-12-01T13:41:40.643Z,22.92
2017-12-01T13:44:06.886Z,20.80
2017-12-01T13:46:33.462Z,24.83
2017-12-01T13:49:01.040Z,20.25
2017-12-01T13:51:27.294Z,22.60
2017-12-01T13:53:54.523Z,24.17
2017-12-01T13:56:21.477Z,26.33
2017-12-01T13:58:49.511Z,24.60
2017-12-01T14:01:17.075Z,20.70
2017-12-01T14:03:44.043Z,26.33
2017-12-01T14:06:10.273Z,25.12
2017-12-01T14:08:36.597Z,20.80
2017-12-01T14:11:03.470Z,24.10
2017-12-01T14:13:29.669Z,23.48
2017-12-01T14:15:56.476Z,24.12
2017-12-01T14:18:24.072Z,24.90
2017-12-01T14:20:51.178Z,25.88
2017-12-01T14:23:18.170Z,30.40
2017-12-01T14:25:44.506Z,24.75
2017-12-01T14:28:12.685Z,23.42
2017-12-01T14:30:39.504Z,24.63
2017-12-01T14:33:05.931Z,25.10
2017-12-01T14:35:36.114Z,20.75
2017-12-01T14:38:04.356Z,23.80
2017-12-01T14:40:30.578Z,72.82
2017-12-01T14:42:58.442Z,33.55
2017-12-01T14:45:25.184Z,27.10
2017-12-01T14:47:51.394Z,29.63
2017-12-01T14:50:18.264Z,29.75
2017-12-01T14:52:45.345Z,33.00
2017-12-01T14:55:12.249Z,28.90
2017-12-01T14:57:38.519Z,26.90
2017-12-01T15:00:04.885Z,28.50
2017-12-01T15:02:31.701Z,28.30
2017-12-01T15:04:57.959Z,25.88
2017-12-01T15:07:25.164Z,29.02
2017-12-01T15:09:51.405Z,25.67
2017-12-01T15:12:18.141Z,26.67
2017-12-01T15:14:44.886Z,27.75
2017-12-01T15:17:11.512Z,26.35
2017-12-01T15:19:38.473Z,24.37
2017-12-01T15:22:05.235Z,29.08
2017-12-01T15:24:32.789Z,26.20
2017-12-01T15:27:00.923Z,23.30
2017-12-01T15:29:27.191Z,27.85
2017-12-01T15:31:54.536Z,23.00
2017-12-01T15:34:21.729Z,33.13
2017-12-01T15:36:48.399Z,23.25
2017-12-01T15:39:15.276Z,21.30
2017-12-01T15:41:42.493Z,23.92
2017-12-01T15:44:09.788Z,18.87
2017-12-01T15:46:36.773Z,18.92
2017-12-01T15:49:03.241Z,20.35
2017-12-01T15:51:30.220Z,19.02
2017-12-01T15:53:56.569Z,19.40
2017-12-01T15:56:23.406Z,16.00
2017-12-01T15:58:50.891Z,21.00
2017-12-01T16:01:17.181Z,26.02
2017-12-01T16:03:43.453Z,32.78
2017-12-01T16:06:09.694Z,36.25
2017-12-01T16:08:36.554Z,49.38
2017-12-01T16:11:03.611Z,41.97
2017-12-01T16:13:29.883Z,38.80
2017-12-01T16:15:56.190Z,35.40
2017-12-01T16:18:23.024Z,30.67
2017-12-01T16:20:50.018Z,35.40
2017-12-01T16:23:16.290Z,32.35
2017-12-01T16:25:43.313Z,36.10
2017-12-01T16:28:10.389Z,41.05
2017-12-01T16:30:37.234Z,42.17
2017-12-01T16:33:08.495Z,38.40
2017-12-01T16:35:30.794Z,34.65
2017-12-01T16:37:58.050Z,35.65
2017-12-01T16:40:25.160Z,33.38
2017-12-01T16:42:51.835Z,31.70
2017-12-01T16:45:18.925Z,41.42
2017-12-01T16:47:45.187Z,27.70
2017-12-01T16:50:12.065Z,34.78
2017-12-01T16:52:39.364Z,34.97
2017-12-01T16:55:07.149Z,37.88
2017-12-01T16:57:34.215Z,32.10
2017-12-01T17:00:01.489Z,29.37
2017-12-01T17:02:29.250Z,34.00
2017-12-01T17:04:55.844Z,36.75
2017-12-01T17:07:22.116Z,34.47
2017-12-01T17:09:48.642Z,27.77
2017-12-01T17:12:15.789Z,28.12
2017-12-01T17:14:42.905Z,30.80
2017-12-01T17:17:09.947Z,33.38
2017-12-01T17:19:36.799Z,31.30
2017-12-01T17:22:03.067Z,28.00
2017-12-01T17:24:29.896Z,30.65
2017-12-01T17:26:57.157Z,32.25
2017-12-01T17:29:24.042Z,34.88
2017-12-01T17:31:51.257Z,30.30
2017-12-01T17:34:18.154Z,24.02
2017-12-01T17:36:45.359Z,26.42
2017-12-01T17:39:11.729Z,34.72
2017-12-01T17:41:38.509Z,33.25
2017-12-01T17:44:05.208Z,27.33
2017-12-01T17:46:33.015Z,36.10
2017-12-01T17:58:44.455Z,23.87
2017-12-01T18:01:11.862Z,21.98
2017-12-01T18:03:39.045Z,26.85
2017-12-01T18:06:06.727Z,25.98
2017-12-01T18:08:35.911Z,20.12
2017-12-01T18:11:02.448Z,23.23
2017-12-01T18:13:29.510Z,19.15
2017-12-01T18:15:56.667Z,21.95
2017-12-01T18:18:23.492Z,23.33
2017-12-01T18:20:50.558Z,20.05
2017-12-01T18:23:16.882Z,19.85
2017-12-01T18:25:43.932Z,23.25
2017-12-01T18:28:10.696Z,19.45
2017-12-01T18:30:37.987Z,18.95
2017-12-01T18:33:05.402Z,21.62
2017-12-01T18:35:31.673Z,16.33
2017-12-01T18:37:58.714Z,17.85
2017-12-01T18:40:26.485Z,17.98
2017-12-01T18:42:54.147Z,19.75
2017-12-01T18:45:20.426Z,22.87
2017-12-01T18:47:47.405Z,24.60
2017-12-01T18:50:14.131Z,24.80
2017-12-01T18:52:40.612Z,28.98
2017-12-01T18:55:07.855Z,19.77
2017-12-01T18:57:35.051Z,34.78
2017-12-01T19:00:01.352Z,25.27
2017-12-01T19:02:28.631Z,24.65
2017-12-01T19:04:55.008Z,21.80
2017-12-01T19:07:22.217Z,18.75
2017-12-01T19:09:49.082Z,22.27
2017-12-01T19:12:16.184Z,20.92
2017-12-01T19:14:43.374Z,15.80
2017-12-01T19:17:10.601Z,19.12
2017-12-01T19:19:38.326Z,19.87
2017-12-01T19:22:05.403Z,18.65
2017-12-01T19:24:31.958Z,20.62
2017-12-01T19:26:58.604Z,21.40
2017-12-01T19:29:26.080Z,21.73
2017-12-01T19:31:53.402Z,22.80
2017-12-01T19:34:20.234Z,18.67
2017-12-01T19:36:46.555Z,19.98
2017-12-01T19:39:13.108Z,15.50
2017-12-01T19:41:40.156Z,19.50
2017-12-01T19:44:06.462Z,15.30
2017-12-01T19:46:33.082Z,17.48
2017-12-01T19:49:00.685Z,20.00
2017-12-01T19:51:27.762Z,19.87
2017-12-01T19:53:54.744Z,22.20
2017-12-01T19:56:22.190Z,23.67
2017-12-01T19:58:49.686Z,26.67
2017-12-01T20:01:17.500Z,25.27
2017-12-01T20:03:44.643Z,23.98
2017-12-01T20:06:10.945Z,30.73
2017-12-01T20:08:37.971Z,28.00
2017-12-01T20:11:04.785Z,38.13
2017-12-01T20:13:32.341Z,31.48
2017-12-01T20:15:59.445Z,27.50
2017-12-01T20:18:26.472Z,23.70
2017-12-01T20:20:54.066Z,24.37
2017-12-01T20:23:20.557Z,21.00
2017-12-01T20:25:47.615Z,26.62
2017-12-01T20:28:14.849Z,25.58
2017-12-01T20:30:41.528Z,25.12
2017-12-01T20:33:08.545Z,28.87
2017-12-01T20:35:35.911Z,22.00
2017-12-01T20:38:03.056Z,26.02
2017-12-01T20:40:30.578Z,21.33
2017-12-01T20:42:59.324Z,27.50
2017-12-01T20:45:26.541Z,28.35
2017-12-01T20:47:53.716Z,23.35
2017-12-01T20:50:21.727Z,23.87
2017-12-01T20:52:48.057Z,22.40
2017-12-01T20:55:15.135Z,25.88
2017-12-01T20:57:41.456Z,29.45
2017-12-01T21:00:07.743Z,29.98
2017-12-01T21:02:34.919Z,28.62
2017-12-01T21:05:01.587Z,27.13
2017-12-01T21:07:28.151Z,24.33
2017-12-01T21:09:54.744Z,27.58
2017-12-01T21:12:21.732Z,32.05
2017-12-01T21:14:48.640Z,28.23
2017-12-01T21:17:15.209Z,32.85
2017-12-01T21:19:42.782Z,27.15
2017-12-01T21:22:10.369Z,36.63
2017-12-01T21:24:37.964Z,34.92
2017-12-01T21:27:04.964Z,35.60
2017-12-01T21:29:31.869Z,40.08
2017-12-01T21:31:59.889Z,34.80
2017-12-01T21:34:26.336Z,28.35
2017-12-01T21:36:53.636Z,28.20
2017-12-01T21:39:19.901Z,31.08
2017-12-01T21:41:47.726Z,27.55
2017-12-01T21:44:14.545Z,26.55
2017-12-01T21:46:41.771Z,21.90
2017-12-01T21:49:09.946Z,19.67
2017-12-01T21:51:37.166Z,27.13
2017-12-01T21:54:04.163Z,23.90
2017-12-01T21:56:31.436Z,21.67
2017-12-01T21:58:59.004Z,19.87
2017-12-01T22:01:25.797Z,18.92
2017-12-01T22:03:52.841Z,17.17
2017-12-01T22:06:21.140Z,16.02
2017-12-01T22:08:48.724Z,20.20
2017-12-01T22:11:15.645Z,20.98
2017-12-01T22:13:41.913Z,26.17
2017-12-01T22:16:10.066Z,22.08
2017-12-01T22:18:37.323Z,22.50
2017-12-01T22:21:05.697Z,26.23
2017-12-01T22:23:32.331Z,28.65
2017-12-01T22:25:59.372Z,36.78
2017-12-01T22:28:25.663Z,31.67
2017-12-01T22:30:53.783Z,30.50
2017-12-01T22:33:20.068Z,30.30
2017-12-01T22:35:47.058Z,30.05
2017-12-01T22:38:13.893Z,29.33
2017-12-01T22:40:40.289Z,27.65
2017-12-01T22:43:07.355Z,26.33
2017-12-01T22:45:33.722Z,23.92
2017-12-01T22:47:59.993Z,16.35
2017-12-01T22:50:27.177Z,22.70
2017-12-01T22:52:54.656Z,21.80
2017-12-01T22:55:20.887Z,16.17
2017-12-01T22:57:47.105Z,18.50
2017-12-01T23:00:13.295Z,19.33
2017-12-01T23:02:40.186Z,27.75
2017-12-01T23:05:06.478Z,34.38
2017-12-01T23:07:32.696Z,30.45
2017-12-01T23:09:59.114Z,28.87
2017-12-01T23:12:26.905Z,29.73
2017-12-01T23:14:53.309Z,34.53
2017-12-01T23:17:20.438Z,31.58
2017-12-01T23:19:47.979Z,24.58
2017-12-01T23:22:14.727Z,29.67
2017-12-01T23:24:41.563Z,21.80
2017-12-01T23:27:08.741Z,29.35
2017-12-01T23:29:36.286Z,22.87
2017-12-01T23:32:03.787Z,25.35
2017-12-01T23:34:32.155Z,23.83
2017-12-01T23:36:59.673Z,26.60
2017-12-01T23:39:25.856Z,21.60
2017-12-01T23:41:53.505Z,27.55
2017-12-01T23:44:20.523Z,22.67
2017-12-01T23:46:48.117Z,26.98
2017-12-01T23:49:15.707Z,26.27
2017-12-01T23:51:41.944Z,23.23
2017-12-01T23:54:09.142Z,24.67
2017-12-01T23:56:37.424Z,24.55
2017-12-01T23:59:04.200Z,18.98
